Time;durP1;ratioP1;P1;durP2;ratioP2;P2;SDS_P1;SDS_P2;PMS_P1;PMS_P2;Temp;Humidity;BMP_temperature;BMP_pressure;BME280_temperature;BME280_humidity;BME280_pressure;Samples;Min_cycle;Max_cycle;Signal;HPM_P1;HPM_P2
2023/08/16 00:00:19;;;;;;;5.22;3.17;;;13.90;99.90;;;;;;5148418;27;20217;-85
2023/08/16 00:02:50;;;;;;;6.18;3.70;;;14.00;99.90;;;;;;5150219;27;20197;-85
2023/08/16 00:05:21;;;;;;;5.60;3.55;;;14.00;99.90;;;;;;5151264;27;20673;-85
2023/08/16 00:07:51;;;;;;;4.43;3.20;;;14.10;99.90;;;;;;5151528;27;20189;-86
2023/08/16 00:10:22;;;;;;;4.53;3.38;;;14.20;99.90;;;;;;5153526;27;20660;-85
2023/08/16 00:12:55;;;;;;;6.38;3.50;;;14.10;99.90;;;;;;5148266;27;20268;-84
2023/08/16 00:15:27;;;;;;;4.45;3.20;;;14.20;99.90;;;;;;5148799;27;20667;-85
2023/08/16 00:17:58;;;;;;;4.18;2.85;;;14.20;99.90;;;;;;5153065;27;20596;-85
2023/08/16 00:20:28;;;;;;;4.50;3.00;;;14.50;99.90;;;;;;5153816;27;20225;-86
2023/08/16 00:22:59;;;;;;;4.50;2.30;;;14.60;99.90;;;;;;5135261;27;20269;-88
2023/08/16 00:25:30;;;;;;;4.43;2.30;;;14.60;99.90;;;;;;5134559;27;20194;-85
2023/08/16 00:28:02;;;;;;;2.83;2.33;;;14.70;99.90;;;;;;5145013;27;20201;-86
2023/08/16 00:30:33;;;;;;;4.65;2.25;;;14.80;99.90;;;;;;5133527;27;20208;-85
2023/08/16 00:33:04;;;;;;;3.67;2.35;;;14.90;99.90;;;;;;5144808;27;20196;-86
2023/08/16 00:35:38;;;;;;;5.38;2.10;;;15.00;99.90;;;;;;5139493;27;20199;-87
2023/08/16 00:38:09;;;;;;;3.95;2.38;;;15.20;99.90;;;;;;5153329;27;20555;-87
2023/08/16 00:40:39;;;;;;;3.47;2.35;;;15.10;99.90;;;;;;5153190;27;20230;-86
2023/08/16 00:43:12;;;;;;;4.53;2.08;;;15.20;99.90;;;;;;5142035;27;20575;-87
2023/08/16 00:45:44;;;;;;;4.28;2.10;;;15.40;99.90;;;;;;5149307;27;20189;-88
2023/08/16 00:48:15;;;;;;;2.78;1.88;;;15.50;99.90;;;;;;5132193;27;20541;-88
2023/08/16 00:50:47;;;;;;;2.72;2.20;;;15.60;99.90;;;;;;5132539;28;20190;-86
2023/08/16 00:53:19;;;;;;;2.65;1.88;;;15.80;99.90;;;;;;5132152;27;20665;-86
2023/08/16 00:55:50;;;;;;;2.25;1.60;;;15.80;99.90;;;;;;5137543;27;20201;-87
2023/08/16 00:58:24;;;;;;;2.80;1.85;;;15.90;99.90;;;;;;5149201;27;20196;-87
2023/08/16 01:00:55;;;;;;;3.30;1.60;;;16.00;99.90;;;;;;5150578;27;20200;-87
2023/08/16 01:03:26;;;;;;;2.92;1.55;;;16.10;99.90;;;;;;5135938;27;20183;-88
2023/08/16 01:05:57;;;;;;;5.30;1.60;;;16.10;99.90;;;;;;5132305;27;20274;-87
2023/08/16 01:08:28;;;;;;;1.92;1.13;;;16.10;99.90;;;;;;5132139;27;20558;-86
2023/08/16 01:11:04;;;;;;;3.72;1.80;;;16.20;99.90;;;;;;5151743;27;20204;-86
2023/08/16 01:13:41;;;;;;;4.88;1.48;;;16.20;99.90;;;;;;5157459;27;20181;-87
2023/08/16 01:16:15;;;;;;;2.67;1.65;;;16.20;99.90;;;;;;5149570;27;20186;-86
2023/08/16 01:18:47;;;;;;;2.63;1.33;;;16.10;99.90;;;;;;5136463;27;20197;-85
2023/08/16 01:21:19;;;;;;;2.05;0.82;;;16.30;99.90;;;;;;5137039;27;20209;-85
2023/08/16 01:24:06;;;;;;;2.13;0.75;;;16.60;99.90;;;;;;5136518;27;20209;-84
2023/08/16 01:26:39;;;;;;;1.48;0.60;;;16.60;99.90;;;;;;5137077;27;20198;-84
2023/08/16 01:29:12;;;;;;;1.63;0.82;;;16.70;99.90;;;;;;5143698;27;20222;-85
2023/08/16 01:31:42;;;;;;;1.10;0.70;;;16.70;99.90;;;;;;5174160;27;20259;-84
2023/08/16 01:34:14;;;;;;;2.40;0.80;;;16.60;99.90;;;;;;5161469;27;20241;-86
2023/08/16 01:36:45;;;;;;;0.75;0.60;;;16.80;99.90;;;;;;5174621;27;20178;-83
2023/08/16 01:39:16;;;;;;;1.00;0.60;;;16.70;99.90;;;;;;5181257;27;20258;-83
2023/08/16 01:41:52;;;;;;;2.72;0.90;;;16.60;99.90;;;;;;5162175;27;20221;-84
2023/08/16 01:44:24;;;;;;;1.55;0.80;;;16.70;99.90;;;;;;5141815;27;20196;-85
2023/08/16 01:46:56;;;;;;;0.88;0.73;;;16.80;99.90;;;;;;5143704;27;20193;-84
2023/08/16 01:49:28;;;;;;;1.58;0.63;;;16.80;99.90;;;;;;5141039;27;20288;-88
2023/08/16 01:51:59;;;;;;;0.90;0.75;;;16.90;99.90;;;;;;5152662;27;20196;-87
2023/08/16 01:54:30;;;;;;;1.98;1.00;;;17.00;99.90;;;;;;5143260;27;20204;-86
2023/08/16 01:57:03;;;;;;;3.05;0.98;;;17.00;99.90;;;;;;5152958;27;20197;-86
2023/08/16 01:59:34;;;;;;;3.67;0.88;;;17.00;99.90;;;;;;5139412;27;20218;-85
2023/08/16 02:02:06;;;;;;;1.77;0.80;;;17.10;99.90;;;;;;5147712;27;20223;-88
2023/08/16 02:04:36;;;;;;;1.98;0.93;;;17.00;99.90;;;;;;5156557;27;20188;-86
2023/08/16 02:07:07;;;;;;;5.50;1.20;;;17.10;99.90;;;;;;5156739;27;20204;-87
2023/08/16 02:09:38;;;;;;;2.63;0.90;;;17.20;99.90;;;;;;5156611;27;20184;-86
2023/08/16 02:12:12;;;;;;;2.70;0.80;;;17.20;99.90;;;;;;5150743;27;20174;-86
2023/08/16 02:14:44;;;;;;;1.20;0.80;;;17.20;99.90;;;;;;5135609;27;20625;-87
2023/08/16 02:17:15;;;;;;;2.50;0.77;;;17.20;99.90;;;;;;5144139;27;20200;-87
2023/08/16 02:19:46;;;;;;;1.77;0.63;;;17.20;99.90;;;;;;5135870;27;20225;-87
2023/08/16 02:22:18;;;;;;;1.15;0.55;;;17.20;99.90;;;;;;5136170;27;20640;-89
2023/08/16 02:24:52;;;;;;;2.88;0.95;;;17.20;99.90;;;;;;5104652;27;20216;-90
2023/08/16 02:27:24;;;;;;;3.33;1.00;;;17.20;99.90;;;;;;5138619;27;20690;-86
2023/08/16 02:29:57;;;;;;;0.93;0.60;;;17.20;99.90;;;;;;5136745;27;20217;-90
2023/08/16 02:32:29;;;;;;;2.53;0.68;;;17.40;99.90;;;;;;5137310;27;20201;-91
2023/08/16 02:35:00;;;;;;;0.93;0.60;;;17.60;99.90;;;;;;5159221;27;20226;-90
2023/08/16 02:37:32;;;;;;;2.03;0.77;;;17.80;99.90;;;;;;5144662;27;20201;-90
2023/08/16 02:40:04;;;;;;;2.70;0.70;;;17.80;99.90;;;;;;5138121;27;20209;-94
2023/08/16 02:42:39;;;;;;;2.83;0.80;;;18.00;99.90;;;;;;5137884;27;20204;-93
2023/08/16 02:45:11;;;;;;;1.17;0.60;;;18.10;99.90;;;;;;5140230;27;20190;-90
2023/08/16 02:47:42;;;;;;;1.33;0.70;;;18.20;99.90;;;;;;5141210;27;20200;-90
2023/08/16 02:50:13;;;;;;;1.33;0.80;;;18.20;99.90;;;;;;5137297;27;20620;-86
2023/08/16 02:52:45;;;;;;;1.83;0.70;;;18.30;99.90;;;;;;5137090;27;20193;-89
2023/08/16 02:55:17;;;;;;;1.88;0.52;;;18.30;99.90;;;;;;5119618;27;20649;-89
2023/08/16 02:57:52;;;;;;;1.27;0.70;;;18.30;99.90;;;;;;5136894;27;20204;-89
2023/08/16 03:00:23;;;;;;;2.25;0.90;;;18.40;99.90;;;;;;5135106;27;20221;-86
2023/08/16 03:02:58;;;;;;;1.50;0.70;;;18.50;99.90;;;;;;5137167;27;20190;-89
2023/08/16 03:05:30;;;;;;;1.65;0.60;;;18.50;99.90;;;;;;5139721;27;20194;-92
2023/08/16 03:08:01;;;;;;;2.67;0.90;;;18.50;99.90;;;;;;5137671;27;20206;-92
2023/08/16 03:10:33;;;;;;;1.38;0.60;;;18.50;99.90;;;;;;5137851;27;20200;-94
2023/08/16 03:13:08;;;;;;;1.40;0.85;;;18.40;99.90;;;;;;5142791;27;20219;-91
2023/08/16 03:15:41;;;;;;;2.25;0.80;;;18.50;99.90;;;;;;5119386;27;20245;-91
2023/08/16 03:18:12;;;;;;;1.63;0.68;;;18.30;99.90;;;;;;5135564;27;20205;-90
2023/08/16 03:20:43;;;;;;;2.20;0.70;;;18.20;99.90;;;;;;5135143;27;20682;-87
2023/08/16 03:23:14;;;;;;;2.15;0.65;;;18.10;99.90;;;;;;5134905;27;20220;-88
2023/08/16 03:25:45;;;;;;;1.15;0.70;;;17.90;99.90;;;;;;5134930;27;20679;-89
2023/08/16 03:28:18;;;;;;;2.00;0.57;;;18.00;99.90;;;;;;5134854;27;20278;-87
2023/08/16 03:30:49;;;;;;;3.75;0.80;;;18.10;99.90;;;;;;5116915;27;20190;-88
2023/08/16 03:33:21;;;;;;;1.55;0.60;;;18.20;99.90;;;;;;5118666;27;20205;-89
2023/08/16 03:35:52;;;;;;;2.85;0.60;;;18.30;99.90;;;;;;5136433;27;20647;-89
2023/08/16 03:38:23;;;;;;;3.13;0.70;;;18.40;99.90;;;;;;5136738;27;20652;-87
2023/08/16 03:40:54;;;;;;;2.05;0.80;;;18.40;99.90;;;;;;5140920;27;20221;-85
2023/08/16 03:43:31;;;;;;;4.75;0.77;;;18.40;99.90;;;;;;5168795;27;20200;-90
2023/08/16 03:46:02;;;;;;;2.97;0.60;;;18.40;99.90;;;;;;5160872;27;20186;-87
2023/08/16 03:48:33;;;;;;;5.22;0.85;;;18.10;99.90;;;;;;5138862;27;20198;-89
2023/08/16 03:51:04;;;;;;;2.15;0.63;;;18.00;99.90;;;;;;5139233;27;20195;-89
2023/08/16 03:53:35;;;;;;;0.47;0.47;;;17.80;99.90;;;;;;5149280;27;20226;-90
2023/08/16 03:56:06;;;;;;;4.22;0.60;;;17.50;99.90;;;;;;5163190;27;20177;-89
2023/08/16 03:58:40;;;;;;;2.38;0.77;;;17.50;99.90;;;;;;5140825;27;20197;-89
2023/08/16 04:01:11;;;;;;;1.05;0.47;;;17.70;99.90;;;;;;5141999;27;20224;-88
2023/08/16 04:03:43;;;;;;;1.58;0.50;;;17.80;99.90;;;;;;5157071;27;20178;-88
2023/08/16 04:06:15;;;;;;;1.92;0.60;;;17.90;99.90;;;;;;5152401;27;20197;-89
2023/08/16 04:08:47;;;;;;;1.85;0.55;;;18.00;99.90;;;;;;5141152;27;20204;-88
2023/08/16 04:11:18;;;;;;;2.78;0.60;;;18.10;99.90;;;;;;5136921;27;20186;-89
2023/08/16 04:13:54;;;;;;;1.50;0.40;;;18.20;99.90;;;;;;5137390;27;20196;-89
2023/08/16 04:16:25;;;;;;;3.42;0.40;;;17.90;99.90;;;;;;5149380;27;20271;-89
2023/08/16 04:18:57;;;;;;;1.55;0.60;;;17.90;99.90;;;;;;5156238;27;20216;-85
2023/08/16 04:21:29;;;;;;;2.38;0.50;;;17.90;99.90;;;;;;5135499;27;20573;-88
2023/08/16 04:24:02;;;;;;;0.43;0.30;;;17.80;99.90;;;;;;5141400;27;20208;-88
2023/08/16 04:26:34;;;;;;;3.00;0.40;;;17.90;99.90;;;;;;5136518;27;20197;-88
2023/08/16 04:29:09;;;;;;;0.65;0.30;;;17.90;99.90;;;;;;5143655;27;20224;-87
2023/08/16 04:31:40;;;;;;;1.38;0.50;;;17.90;99.90;;;;;;5148314;27;20334;-87
2023/08/16 04:34:11;;;;;;;1.27;0.35;;;17.80;99.90;;;;;;5149125;27;20674;-87
2023/08/16 04:36:43;;;;;;;0.90;0.40;;;17.70;99.90;;;;;;5157969;27;20189;-88
2023/08/16 04:39:14;;;;;;;0.95;0.50;;;17.70;99.90;;;;;;5155602;27;20185;-86
2023/08/16 04:41:45;;;;;;;2.22;0.30;;;17.70;99.90;;;;;;5156666;27;20756;-88
2023/08/16 04:44:18;;;;;;;0.55;0.38;;;17.70;99.90;;;;;;5159524;27;20192;-87
2023/08/16 04:46:52;;;;;;;1.25;0.40;;;17.70;99.90;;;;;;5150874;27;20194;-88
2023/08/16 04:49:25;;;;;;;1.13;0.40;;;17.60;99.90;;;;;;5154017;27;20186;-89
2023/08/16 04:51:56;;;;;;;1.50;0.30;;;17.50;99.90;;;;;;5158789;27;20190;-91
2023/08/16 04:54:27;;;;;;;1.45;0.30;;;17.50;99.90;;;;;;5162349;27;20276;-90
2023/08/16 04:56:59;;;;;;;0.75;0.28;;;17.40;99.90;;;;;;5160789;27;20191;-90
2023/08/16 04:59:37;;;;;;;2.50;0.30;;;17.40;99.90;;;;;;5157997;27;20193;-88
2023/08/16 05:02:09;;;;;;;0.98;0.50;;;17.40;99.90;;;;;;5150996;27;20217;-88
2023/08/16 05:04:40;;;;;;;1.20;0.28;;;17.40;99.90;;;;;;5139550;28;20202;-88
2023/08/16 05:07:12;;;;;;;0.40;0.30;;;17.40;99.90;;;;;;5139173;28;20198;-89
2023/08/16 05:09:43;;;;;;;2.85;0.47;;;17.40;99.90;;;;;;5139585;28;20209;-88
2023/08/16 05:12:15;;;;;;;1.27;0.40;;;17.50;99.90;;;;;;5152244;28;20198;-89
2023/08/16 05:14:48;;;;;;;0.95;0.40;;;17.50;99.90;;;;;;5157869;27;20246;-83
2023/08/16 05:17:19;;;;;;;1.25;0.35;;;17.50;99.90;;;;;;5158573;27;20186;-89
2023/08/16 05:19:49;;;;;;;1.73;0.28;;;17.60;99.90;;;;;;5148076;27;20226;-89
2023/08/16 05:22:22;;;;;;;1.05;0.43;;;17.50;99.90;;;;;;5118151;28;20221;-89
2023/08/16 05:24:54;;;;;;;0.65;0.38;;;17.50;99.90;;;;;;5142306;27;20543;-89
2023/08/16 05:27:25;;;;;;;3.40;0.40;;;17.50;99.90;;;;;;5127984;28;20190;-85
2023/08/16 05:29:59;;;;;;;1.00;0.40;;;17.50;99.90;;;;;;5141658;27;20210;-89
2023/08/16 05:32:31;;;;;;;0.90;0.40;;;17.60;99.90;;;;;;5135882;27;20268;-89
2023/08/16 05:35:02;;;;;;;1.17;0.40;;;17.60;99.90;;;;;;5150276;27;20193;-90
2023/08/16 05:37:35;;;;;;;2.05;0.22;;;17.60;99.90;;;;;;5156518;27;20280;-87
2023/08/16 05:40:09;;;;;;;0.90;0.30;;;17.60;99.90;;;;;;5160859;27;20194;-87
2023/08/16 05:42:40;;;;;;;1.20;0.35;;;17.50;99.90;;;;;;5144138;27;20571;-87
2023/08/16 05:45:21;;;;;;;1.42;0.30;;;17.50;99.90;;;;;;5150103;27;20181;-90
2023/08/16 05:47:51;;;;;;;1.40;0.35;;;17.40;99.90;;;;;;5149302;27;20189;-89
2023/08/16 05:50:27;;;;;;;0.22;0.22;;;17.40;99.90;;;;;;5135527;28;20202;-89
2023/08/16 05:52:58;;;;;;;0.28;0.20;;;17.40;99.90;;;;;;5143503;27;20571;-87
2023/08/16 05:55:32;;;;;;;2.10;0.50;;;17.50;99.90;;;;;;5118122;28;20568;-86
2023/08/16 06:00:52;;;;;;;0.60;0.35;;;17.60;99.90;;;;;;5143662;27;20220;-88
2023/08/16 06:03:26;;;;;;;3.53;0.50;;;17.70;99.90;;;;;;5143183;27;20292;-88
2023/08/16 06:06:00;;;;;;;0.30;0.22;;;17.70;99.90;;;;;;5155143;27;20193;-88
2023/08/16 06:08:35;;;;;;;0.85;0.20;;;17.80;99.90;;;;;;5142984;27;20663;-88
2023/08/16 06:11:14;;;;;;;1.63;0.30;;;17.90;99.90;;;;;;5158147;27;20198;-88
2023/08/16 06:13:48;;;;;;;0.20;0.17;;;17.80;99.90;;;;;;5153366;27;20269;-87
2023/08/16 06:16:36;;;;;;;0.85;0.30;;;17.60;99.90;;;;;;5139271;27;20468;-87
2023/08/16 06:19:10;;;;;;;0.70;0.40;;;17.50;99.90;;;;;;5140708;27;20221;-88
2023/08/16 06:21:43;;;;;;;1.95;0.30;;;17.40;99.90;;;;;;5159994;27;20296;-89
2023/08/16 06:24:14;;;;;;;1.00;0.50;;;17.30;99.90;;;;;;5152850;27;20178;-87
2023/08/16 06:26:45;;;;;;;0.52;0.28;;;17.20;99.90;;;;;;5152676;27;20177;-89
2023/08/16 06:29:17;;;;;;;0.20;0.20;;;17.20;99.90;;;;;;5158633;27;20209;-90
2023/08/16 06:31:49;;;;;;;0.50;0.20;;;17.30;99.90;;;;;;5153566;27;20194;-86
2023/08/16 06:34:22;;;;;;;0.90;0.50;;;17.40;99.90;;;;;;5152167;27;20189;-87
2023/08/16 06:36:54;;;;;;;1.00;0.70;;;17.60;99.90;;;;;;5154777;27;20276;-87
2023/08/16 06:39:25;;;;;;;1.42;0.40;;;17.80;99.90;;;;;;5160999;27;20196;-88
2023/08/16 06:41:59;;;;;;;0.50;0.20;;;17.90;99.90;;;;;;5139399;27;20225;-88
2023/08/16 06:44:33;;;;;;;1.05;0.20;;;17.90;99.90;;;;;;5152722;27;20178;-88
2023/08/16 06:47:09;;;;;;;0.65;0.20;;;17.90;99.90;;;;;;5141043;27;20707;-88
2023/08/16 06:49:40;;;;;;;0.47;0.20;;;17.80;99.90;;;;;;5140798;27;20220;-89
2023/08/16 06:52:11;;;;;;;0.55;0.20;;;17.70;99.90;;;;;;5139782;27;20197;-86
2023/08/16 06:54:42;;;;;;;0.95;0.30;;;17.60;99.90;;;;;;5158432;27;20686;-88
2023/08/16 06:57:15;;;;;;;2.05;0.20;;;17.50;99.90;;;;;;5148980;27;20201;-88
2023/08/16 06:59:48;;;;;;;0.30;0.20;;;17.50;99.90;;;;;;5139871;27;20543;-88
2023/08/16 07:02:26;;;;;;;1.17;0.30;;;17.40;99.90;;;;;;5137860;27;20233;-85
2023/08/16 07:04:57;;;;;;;0.93;0.30;;;17.20;99.90;;;;;;5136185;27;20193;-89
2023/08/16 07:07:28;;;;;;;0.20;0.20;;;17.20;99.90;;;;;;5138941;27;20563;-87
2023/08/16 07:09:59;;;;;;;0.77;0.30;;;17.10;99.90;;;;;;5137792;27;20217;-86
2023/08/16 07:12:30;;;;;;;1.15;0.20;;;17.10;99.90;;;;;;5136236;27;20198;-87
2023/08/16 07:15:03;;;;;;;0.75;0.20;;;17.00;99.90;;;;;;5138053;27;20196;-89
2023/08/16 07:17:40;;;;;;;0.28;0.28;;;16.90;99.90;;;;;;5144962;27;20200;-88
2023/08/16 07:20:41;;;;;;;0.30;0.30;;;16.80;99.90;;;;;;5148512;27;20264;-88
2023/08/16 07:23:42;;;;;;;0.17;0.17;;;16.80;99.90;;;;;;5096589;27;20209;-87
2023/08/16 07:29:48;;;;;;;2.75;0.50;;;16.70;99.90;;;;;;4934235;29;20236;-87
2023/08/16 07:32:19;;;;;;;1.85;0.30;;;16.60;99.90;;;;;;4970272;28;20203;-88
2023/08/16 07:34:52;;;;;;;1.13;0.40;;;16.60;99.90;;;;;;5064155;27;20202;-89
2023/08/16 07:37:28;;;;;;;0.77;0.30;;;16.60;99.90;;;;;;5136117;27;20964;-88
2023/08/16 07:39:59;;;;;;;0.25;0.25;;;16.50;99.90;;;;;;5134959;27;20197;-91
2023/08/16 07:42:29;;;;;;;1.13;0.32;;;16.50;99.90;;;;;;5139891;27;20304;-87
2023/08/16 07:45:02;;;;;;;0.88;0.43;;;16.40;99.90;;;;;;5134981;27;20196;-85
2023/08/16 07:47:33;;;;;;;0.95;0.35;;;16.40;99.90;;;;;;5136003;27;20201;-87
2023/08/16 07:50:08;;;;;;;0.63;0.40;;;16.40;99.90;;;;;;5139239;27;20186;-88
2023/08/16 07:52:45;;;;;;;1.15;0.55;;;16.30;99.90;;;;;;5137492;27;20202;-89
2023/08/16 07:55:16;;;;;;;1.33;0.50;;;16.20;99.90;;;;;;5139278;27;20273;-89
2023/08/16 07:57:58;;;;;;;1.75;0.50;;;16.20;99.90;;;;;;5141122;27;20194;-90
2023/08/16 08:00:29;;;;;;;0.70;0.45;;;16.20;99.90;;;;;;5144485;27;20196;-90
2023/08/16 08:03:08;;;;;;;2.95;0.63;;;16.10;99.90;;;;;;5141685;27;20316;-93
2023/08/16 08:05:43;;;;;;;0.85;0.52;;;16.10;99.90;;;;;;5157538;27;20570;-91
2023/08/16 08:08:15;;;;;;;0.90;0.50;;;16.10;99.90;;;;;;5138599;27;20197;-89
2023/08/16 08:10:48;;;;;;;2.85;0.57;;;16.10;99.90;;;;;;5141172;27;20197;-90
2023/08/16 08:13:21;;;;;;;1.05;0.60;;;16.00;99.90;;;;;;5138953;27;20205;-90
2023/08/16 08:15:52;;;;;;;2.40;0.80;;;16.00;99.90;;;;;;5136407;27;20194;-90
2023/08/16 08:18:23;;;;;;;4.05;1.00;;;16.00;99.90;;;;;;5149425;27;20201;-89
2023/08/16 08:21:01;;;;;;;1.50;1.00;;;16.00;99.90;;;;;;5139515;27;20245;-90
2023/08/16 08:23:31;;;;;;;3.97;0.80;;;16.00;99.90;;;;;;5136315;27;20205;-87
2023/08/16 08:26:04;;;;;;;1.92;0.80;;;16.00;99.90;;;;;;5142022;27;20247;-89
2023/08/16 08:28:35;;;;;;;1.02;0.77;;;16.00;99.90;;;;;;5178888;27;20284;-87
2023/08/16 08:31:07;;;;;;;3.35;0.70;;;15.90;99.90;;;;;;5165885;27;20190;-89
2023/08/16 08:33:41;;;;;;;2.05;0.80;;;15.90;99.90;;;;;;5162174;27;20178;-82
2023/08/16 08:36:16;;;;;;;1.08;0.50;;;15.90;99.90;;;;;;5147453;27;20214;-85
2023/08/16 08:38:47;;;;;;;1.92;0.70;;;15.90;99.90;;;;;;5137352;27;20209;-89
2023/08/16 08:41:23;;;;;;;0.70;0.60;;;15.90;99.90;;;;;;5136269;27;20236;-87
2023/08/16 08:43:55;;;;;;;1.38;0.80;;;15.90;99.90;;;;;;5136327;27;20700;-89
2023/08/16 08:46:27;;;;;;;2.30;0.88;;;15.80;99.90;;;;;;5149044;27;20202;-88
2023/08/16 08:49:01;;;;;;;1.48;0.90;;;15.80;99.90;;;;;;5135387;27;20202;-89
2023/08/16 08:51:36;;;;;;;1.42;0.90;;;15.80;99.90;;;;;;5144028;27;20186;-88
2023/08/16 08:54:10;;;;;;;2.03;1.00;;;15.80;99.90;;;;;;5148287;27;20591;-89
2023/08/16 08:56:42;;;;;;;1.75;1.08;;;15.80;99.90;;;;;;5157472;27;20655;-89
2023/08/16 08:59:15;;;;;;;2.75;1.90;;;15.80;99.90;;;;;;5150340;27;20173;-88
2023/08/16 09:01:49;;;;;;;4.72;2.70;;;15.80;99.90;;;;;;5154965;27;20663;-88
2023/08/16 09:04:20;;;;;;;3.95;1.55;;;15.80;99.90;;;;;;5156166;27;20257;-88
2023/08/16 09:06:56;;;;;;;1.95;1.40;;;15.70;99.90;;;;;;5141309;27;20728;-90
2023/08/16 09:09:27;;;;;;;2.40;1.80;;;15.70;99.90;;;;;;5138079;27;20197;-91
2023/08/16 09:11:58;;;;;;;1.65;1.08;;;15.70;99.90;;;;;;5149465;27;20201;-89
2023/08/16 09:14:30;;;;;;;2.10;1.00;;;15.60;99.90;;;;;;5136204;27;20194;-89
2023/08/16 09:17:01;;;;;;;1.85;0.90;;;15.60;99.90;;;;;;5137741;27;20186;-89
2023/08/16 09:19:32;;;;;;;2.70;1.13;;;15.60;99.90;;;;;;5134422;27;20230;-88
2023/08/16 09:22:09;;;;;;;1.45;1.10;;;15.60;99.90;;;;;;5140839;27;20228;-88
2023/08/16 09:24:43;;;;;;;2.35;1.40;;;15.60;99.90;;;;;;5138124;27;20204;-89
2023/08/16 09:27:14;;;;;;;2.63;2.33;;;15.60;99.90;;;;;;5133918;28;20242;-89
2023/08/16 09:29:46;;;;;;;2.72;1.85;;;15.60;99.90;;;;;;5138649;28;20291;-90
2023/08/16 09:32:16;;;;;;;4.13;2.38;;;15.60;99.90;;;;;;5137721;27;20194;-87
2023/08/16 09:34:48;;;;;;;3.10;2.22;;;15.60;99.90;;;;;;5158415;27;20224;-87
2023/08/16 09:37:22;;;;;;;2.80;2.30;;;15.60;99.90;;;;;;5160011;27;20197;-88
2023/08/16 09:40:00;;;;;;;3.42;2.00;;;15.60;99.90;;;;;;5146609;27;22019;-87
2023/08/16 09:42:38;;;;;;;4.65;2.45;;;15.50;99.90;;;;;;5137653;27;20221;-87
2023/08/16 09:45:09;;;;;;;6.85;5.05;;;15.50;99.90;;;;;;5142702;27;20192;-86
2023/08/16 09:47:47;;;;;;;7.10;5.25;;;15.50;99.90;;;;;;5144348;27;20212;-87
2023/08/16 09:50:21;;;;;;;6.03;4.50;;;15.50;99.90;;;;;;5138478;27;20198;-89
2023/08/16 09:52:56;;;;;;;6.65;4.65;;;15.40;99.90;;;;;;5136847;27;20198;-89
2023/08/16 09:55:30;;;;;;;6.90;4.22;;;15.40;99.90;;;;;;5136524;27;20222;-88
2023/08/16 09:58:02;;;;;;;7.00;4.18;;;15.40;99.90;;;;;;5137080;27;20186;-86
2023/08/16 10:00:35;;;;;;;6.85;4.20;;;15.40;99.90;;;;;;5159383;27;20213;-86
2023/08/16 10:03:08;;;;;;;3.30;2.33;;;15.30;99.90;;;;;;5153556;27;20221;-88
2023/08/16 10:05:40;;;;;;;4.15;1.90;;;15.30;99.90;;;;;;5163257;27;20194;-87
2023/08/16 10:08:16;;;;;;;1.95;1.65;;;15.30;99.90;;;;;;5160111;27;20211;-86
2023/08/16 10:10:47;;;;;;;2.75;1.77;;;15.30;99.90;;;;;;5146629;27;20198;-88
2023/08/16 10:13:19;;;;;;;2.55;1.60;;;15.30;99.90;;;;;;5128986;27;20216;-86
2023/08/16 10:15:54;;;;;;;3.58;1.48;;;15.20;99.90;;;;;;5149225;27;20211;-87
2023/08/16 10:18:26;;;;;;;3.03;1.63;;;15.30;99.90;;;;;;5140500;27;20656;-88
2023/08/16 10:21:00;;;;;;;2.80;1.50;;;15.30;99.90;;;;;;5155321;27;20217;-87
2023/08/16 10:23:40;;;;;;;2.33;1.60;;;15.30;99.90;;;;;;5137232;27;20297;-88
2023/08/16 10:26:16;;;;;;;2.45;1.75;;;15.30;99.90;;;;;;5142542;27;20637;-86
2023/08/16 10:28:51;;;;;;;2.08;1.63;;;15.30;99.90;;;;;;5148282;27;20213;-89
2023/08/16 10:31:26;;;;;;;1.75;1.23;;;15.30;99.90;;;;;;5139296;27;20204;-88
2023/08/16 10:33:59;;;;;;;2.72;1.70;;;15.30;99.90;;;;;;5150508;27;20557;-87
2023/08/16 10:36:31;;;;;;;1.63;1.30;;;15.30;99.90;;;;;;5157118;27;20194;-89
2023/08/16 10:39:07;;;;;;;2.92;1.30;;;15.30;99.90;;;;;;5156289;27;20652;-89
2023/08/16 10:41:45;;;;;;;2.28;1.33;;;15.20;99.90;;;;;;5140698;27;20235;-87
2023/08/16 10:44:25;;;;;;;2.63;1.40;;;15.20;99.90;;;;;;5154761;27;20652;-89
2023/08/16 10:46:56;;;;;;;2.05;1.20;;;15.30;99.90;;;;;;5153053;27;20198;-88
2023/08/16 10:49:38;;;;;;;2.33;1.27;;;15.20;99.90;;;;;;5150244;27;20278;-86
2023/08/16 10:52:09;;;;;;;4.15;1.20;;;15.20;99.90;;;;;;5158318;27;20197;-88
2023/08/16 10:54:43;;;;;;;2.60;1.00;;;15.20;99.90;;;;;;5157850;27;20197;-86
2023/08/16 10:57:17;;;;;;;1.80;1.30;;;15.20;99.90;;;;;;5138066;27;20209;-87
2023/08/16 10:59:49;;;;;;;3.03;2.00;;;15.20;99.90;;;;;;5135222;27;20197;-87
2023/08/16 11:02:21;;;;;;;5.72;4.22;;;15.20;99.90;;;;;;5137331;27;20214;-86
2023/08/16 11:04:52;;;;;;;3.85;1.88;;;15.20;99.90;;;;;;5134269;27;20744;-87
2023/08/16 11:07:24;;;;;;;3.28;2.35;;;15.20;99.90;;;;;;5134411;27;20202;-87
2023/08/16 11:10:00;;;;;;;5.28;4.78;;;15.20;99.90;;;;;;5140129;27;20193;-86
2023/08/16 11:12:46;;;;;;;2.80;2.33;;;15.20;99.90;;;;;;5154158;27;20223;-86
2023/08/16 11:15:23;;;;;;;4.15;2.97;;;15.20;99.90;;;;;;5152220;27;20210;-87
2023/08/16 11:17:55;;;;;;;3.97;3.55;;;15.20;99.90;;;;;;5150612;27;20224;-86
2023/08/16 11:20:29;;;;;;;4.22;2.72;;;15.30;99.90;;;;;;5154651;27;20221;-86
2023/08/16 11:23:02;;;;;;;4.10;2.28;;;15.30;99.90;;;;;;5134355;27;20221;-87
2023/08/16 11:25:40;;;;;;;1.83;1.58;;;15.20;99.90;;;;;;5133730;27;20186;-87
2023/08/16 11:28:13;;;;;;;2.65;1.15;;;15.20;99.90;;;;;;5133712;27;20270;-86
2023/08/16 11:30:44;;;;;;;1.90;1.10;;;15.20;99.90;;;;;;5133716;27;20657;-88
2023/08/16 11:33:23;;;;;;;1.70;1.00;;;15.20;99.90;;;;;;5135356;27;20201;-86
2023/08/16 11:35:59;;;;;;;2.15;0.90;;;15.20;99.90;;;;;;5133862;27;20201;-87
2023/08/16 11:38:30;;;;;;;1.08;0.98;;;15.20;99.90;;;;;;5143052;27;20237;-86
2023/08/16 11:41:11;;;;;;;2.55;2.08;;;15.20;99.90;;;;;;5154644;27;20241;-87
2023/08/16 11:43:44;;;;;;;3.60;2.40;;;15.20;99.90;;;;;;5144691;27;20221;-86
2023/08/16 11:46:18;;;;;;;4.90;2.25;;;15.20;99.90;;;;;;5154225;27;20198;-87
2023/08/16 11:48:49;;;;;;;1.60;1.33;;;15.20;99.90;;;;;;5140919;27;20236;-87
2023/08/16 11:51:33;;;;;;;1.90;1.55;;;15.10;99.90;;;;;;5154012;27;20253;-87
2023/08/16 11:54:06;;;;;;;1.73;1.38;;;15.10;99.90;;;;;;5157326;27;20193;-87
2023/08/16 11:56:41;;;;;;;3.17;1.55;;;15.00;99.90;;;;;;5156520;27;20211;-86
2023/08/16 11:59:14;;;;;;;2.30;1.42;;;15.00;99.90;;;;;;5178627;27;20203;-88
2023/08/16 12:01:46;;;;;;;2.60;1.33;;;14.90;99.90;;;;;;5176946;27;20182;-86
2023/08/16 12:04:19;;;;;;;1.63;0.95;;;14.90;99.90;;;;;;5178843;27;20221;-86
2023/08/16 12:06:50;;;;;;;1.80;1.05;;;14.90;99.90;;;;;;5162461;27;20186;-87
2023/08/16 12:09:21;;;;;;;3.67;1.20;;;14.90;99.90;;;;;;5147390;27;20568;-86
2023/08/16 12:11:56;;;;;;;1.40;1.05;;;14.80;99.90;;;;;;5151624;27;20194;-87
2023/08/16 12:14:27;;;;;;;2.80;1.38;;;14.80;99.90;;;;;;5135374;27;20197;-86
2023/08/16 12:16:59;;;;;;;3.88;1.23;;;14.80;99.90;;;;;;5136985;27;20250;-88
2023/08/16 12:19:30;;;;;;;2.55;1.10;;;14.80;99.90;;;;;;5133896;27;20222;-86
2023/08/16 12:22:02;;;;;;;1.55;1.27;;;14.70;99.90;;;;;;5134369;27;20205;-86
2023/08/16 12:24:35;;;;;;;1.70;0.90;;;14.70;99.90;;;;;;5147166;27;20284;-88
2023/08/16 12:27:09;;;;;;;1.98;1.13;;;14.80;99.90;;;;;;5133564;27;20194;-87
2023/08/16 12:29:40;;;;;;;1.63;1.10;;;14.70;99.90;;;;;;5137323;27;20213;-87
2023/08/16 12:32:11;;;;;;;1.10;1.00;;;14.70;99.90;;;;;;5136127;27;20190;-88
2023/08/16 12:34:44;;;;;;;1.33;0.95;;;14.80;99.90;;;;;;5138300;27;20189;-89
2023/08/16 12:37:16;;;;;;;1.52;0.90;;;14.80;99.90;;;;;;5144834;27;20186;-88
2023/08/16 12:39:47;;;;;;;1.70;0.93;;;14.80;99.90;;;;;;5139775;27;20200;-90
2023/08/16 12:42:22;;;;;;;1.95;1.10;;;14.80;99.90;;;;;;5137440;27;20189;-88
2023/08/16 12:44:53;;;;;;;2.50;1.00;;;14.80;99.90;;;;;;5136066;27;20223;-89
2023/08/16 12:47:25;;;;;;;1.00;0.90;;;14.70;99.90;;;;;;5144893;27;20277;-90
2023/08/16 12:49:59;;;;;;;1.98;1.10;;;14.70;99.90;;;;;;5139381;27;20205;-90
2023/08/16 12:52:32;;;;;;;1.35;1.08;;;14.70;99.90;;;;;;5138575;27;20194;-88
2023/08/16 12:55:04;;;;;;;5.22;1.30;;;14.70;99.90;;;;;;5140539;28;20245;-89
2023/08/16 12:57:39;;;;;;;2.58;1.33;;;14.70;99.90;;;;;;5142065;28;20190;-89
2023/08/16 13:00:11;;;;;;;1.88;1.20;;;14.60;99.90;;;;;;5137037;28;20193;-87
2023/08/16 13:02:42;;;;;;;1.63;1.20;;;14.50;99.90;;;;;;5135812;28;20217;-89
2023/08/16 13:05:14;;;;;;;1.65;1.38;;;14.50;99.90;;;;;;5133904;28;20193;-87
2023/08/16 13:07:44;;;;;;;2.33;1.40;;;14.50;99.90;;;;;;5152955;27;20563;-90
2023/08/16 13:10:15;;;;;;;2.47;1.50;;;14.40;99.90;;;;;;5163198;27;20200;-88
2023/08/16 13:12:48;;;;;;;2.85;1.65;;;14.40;99.90;;;;;;5160011;27;20193;-88
2023/08/16 13:15:20;;;;;;;3.42;2.20;;;14.30;99.90;;;;;;5138885;27;20197;-89
2023/08/16 13:17:51;;;;;;;11.00;2.35;;;14.30;99.90;;;;;;5139495;27;20685;-88
2023/08/16 13:20:23;;;;;;;4.95;2.50;;;14.20;99.90;;;;;;5137415;27;20251;-89
2023/08/16 13:22:54;;;;;;;3.00;2.25;;;14.10;99.90;;;;;;5139085;27;20210;-87